sensor_id;sensor_type;location;lat;lon;timestamp;pressure;altitude;pressure_sealevel;temperature;humidity
82949;BME280;72736;50.236;18.876;2024-03-22T00:01:15;98966.80;;;10.19;66.35
82949;BME280;72736;50.236;18.876;2024-03-22T00:06:17;98970.10;;;10.21;66.41
82949;BME280;72736;50.236;18.876;2024-03-22T00:11:21;98968.95;;;10.23;66.73
82949;BME280;72736;50.236;18.876;2024-03-22T00:16:24;98973.10;;;10.23;67.14
82949;BME280;72736;50.236;18.876;2024-03-22T00:21:27;98970.75;;;10.25;67.53
82949;BME280;72736;50.236;18.876;2024-03-22T00:26:30;98967.77;;;10.27;67.34
82949;BME280;72736;50.236;18.876;2024-03-22T00:31:33;98970.24;;;10.29;67.66
82949;BME280;72736;50.236;18.876;2024-03-22T00:36:36;98964.98;;;10.29;68.02
82949;BME280;72736;50.236;18.876;2024-03-22T00:41:39;98965.38;;;10.29;67.97
82949;BME280;72736;50.236;18.876;2024-03-22T00:46:42;98962.02;;;10.30;68.14
82949;BME280;72736;50.236;18.876;2024-03-22T00:51:45;98963.73;;;10.31;68.38
82949;BME280;72736;50.236;18.876;2024-03-22T00:56:50;98964.16;;;10.32;68.55
82949;BME280;72736;50.236;18.876;2024-03-22T01:01:53;98960.75;;;10.33;68.77
82949;BME280;72736;50.236;18.876;2024-03-22T01:06:55;98959.19;;;10.33;68.74
82949;BME280;72736;50.236;18.876;2024-03-22T01:11:58;98957.37;;;10.32;69.23
82949;BME280;72736;50.236;18.876;2024-03-22T01:17:01;98956.36;;;10.30;69.68
82949;BME280;72736;50.236;18.876;2024-03-22T01:22:05;98955.01;;;10.28;69.92
82949;BME280;72736;50.236;18.876;2024-03-22T01:27:07;98956.91;;;10.26;70.17
82949;BME280;72736;50.236;18.876;2024-03-22T01:32:11;98961.07;;;10.24;70.56
82949;BME280;72736;50.236;18.876;2024-03-22T01:37:14;98957.78;;;10.23;70.87
82949;BME280;72736;50.236;18.876;2024-03-22T01:42:17;98958.11;;;10.22;71.15
82949;BME280;72736;50.236;18.876;2024-03-22T01:47:20;98960.05;;;10.22;71.31
82949;BME280;72736;50.236;18.876;2024-03-22T01:52:24;98960.42;;;10.21;71.51
82949;BME280;72736;50.236;18.876;2024-03-22T01:57:27;98964.50;;;10.20;71.59
82949;BME280;72736;50.236;18.876;2024-03-22T02:02:30;98966.17;;;10.21;71.73
82949;BME280;72736;50.236;18.876;2024-03-22T02:07:33;98963.59;;;10.20;71.99
82949;BME280;72736;50.236;18.876;2024-03-22T02:12:36;98961.34;;;10.18;72.09
82949;BME280;72736;50.236;18.876;2024-03-22T02:17:39;98959.69;;;10.17;72.19
82949;BME280;72736;50.236;18.876;2024-03-22T02:22:42;98964.67;;;10.17;72.09
82949;BME280;72736;50.236;18.876;2024-03-22T02:27:45;98964.42;;;10.17;72.25
82949;BME280;72736;50.236;18.876;2024-03-22T02:32:52;98963.06;;;10.16;72.60
82949;BME280;72736;50.236;18.876;2024-03-22T02:37:55;98958.33;;;10.17;72.46
82949;BME280;72736;50.236;18.876;2024-03-22T02:43:00;98957.06;;;10.16;72.41
82949;BME280;72736;50.236;18.876;2024-03-22T02:48:04;98958.55;;;10.13;72.67
82949;BME280;72736;50.236;18.876;2024-03-22T02:53:09;98962.55;;;10.09;72.68
82949;BME280;72736;50.236;18.876;2024-03-22T02:58:12;98958.02;;;10.07;73.14
82949;BME280;72736;50.236;18.876;2024-03-22T03:03:15;98956.45;;;10.05;73.27
82949;BME280;72736;50.236;18.876;2024-03-22T03:08:18;98948.55;;;10.04;73.28
82949;BME280;72736;50.236;18.876;2024-03-22T03:13:21;98953.61;;;10.04;73.38
82949;BME280;72736;50.236;18.876;2024-03-22T03:18:24;98949.70;;;10.04;73.45
82949;BME280;72736;50.236;18.876;2024-03-22T03:23:27;98942.63;;;10.03;73.59
82949;BME280;72736;50.236;18.876;2024-03-22T03:28:30;98945.38;;;10.04;73.44
82949;BME280;72736;50.236;18.876;2024-03-22T03:33:33;98942.10;;;10.03;73.58
82949;BME280;72736;50.236;18.876;2024-03-22T03:38:36;98934.65;;;10.02;73.59
82949;BME280;72736;50.236;18.876;2024-03-22T03:43:39;98929.14;;;10.00;73.61
82949;BME280;72736;50.236;18.876;2024-03-22T03:48:42;98933.88;;;9.96;73.50
82949;BME280;72736;50.236;18.876;2024-03-22T03:53:45;98934.45;;;9.93;73.40
82949;BME280;72736;50.236;18.876;2024-03-22T03:58:48;98929.77;;;9.92;73.40
82949;BME280;72736;50.236;18.876;2024-03-22T04:03:51;98929.58;;;9.91;73.39
82949;BME280;72736;50.236;18.876;2024-03-22T04:08:54;98934.75;;;9.89;73.39
82949;BME280;72736;50.236;18.876;2024-03-22T04:13:58;98927.19;;;9.88;73.66
82949;BME280;72736;50.236;18.876;2024-03-22T04:19:01;98930.30;;;9.88;73.89
82949;BME280;72736;50.236;18.876;2024-03-22T04:24:05;98927.84;;;9.89;73.70
82949;BME280;72736;50.236;18.876;2024-03-22T04:29:08;98913.35;;;9.89;73.88
82949;BME280;72736;50.236;18.876;2024-03-22T04:34:10;98914.95;;;9.88;73.91
82949;BME280;72736;50.236;18.876;2024-03-22T04:39:13;98914.80;;;9.85;73.88
82949;BME280;72736;50.236;18.876;2024-03-22T04:44:18;98914.06;;;9.83;73.40
82949;BME280;72736;50.236;18.876;2024-03-22T04:49:21;98925.92;;;9.78;73.22
82949;BME280;72736;50.236;18.876;2024-03-22T04:54:24;98940.09;;;9.73;73.13
82949;BME280;72736;50.236;18.876;2024-03-22T04:59:28;98941.70;;;9.69;72.98
82949;BME280;72736;50.236;18.876;2024-03-22T05:04:31;98940.75;;;9.64;72.99
82949;BME280;72736;50.236;18.876;2024-03-22T05:09:34;98952.55;;;9.63;72.95
82949;BME280;72736;50.236;18.876;2024-03-22T05:14:36;98957.25;;;9.61;72.71
82949;BME280;72736;50.236;18.876;2024-03-22T05:19:39;98960.46;;;9.60;72.43
82949;BME280;72736;50.236;18.876;2024-03-22T05:24:42;98963.47;;;9.57;72.17
82949;BME280;72736;50.236;18.876;2024-03-22T05:29:45;98964.70;;;9.56;71.91
82949;BME280;72736;50.236;18.876;2024-03-22T05:34:48;98964.54;;;9.57;71.95
82949;BME280;72736;50.236;18.876;2024-03-22T05:39:51;98961.04;;;9.58;71.67
82949;BME280;72736;50.236;18.876;2024-03-22T05:44:54;98960.02;;;9.61;71.30
82949;BME280;72736;50.236;18.876;2024-03-22T05:49:57;98964.48;;;9.60;71.04
82949;BME280;72736;50.236;18.876;2024-03-22T05:55:01;98961.65;;;9.62;70.87
82949;BME280;72736;50.236;18.876;2024-03-22T06:00:11;98959.56;;;9.60;70.37
82949;BME280;72736;50.236;18.876;2024-03-22T06:05:19;98949.20;;;9.59;70.14
82949;BME280;72736;50.236;18.876;2024-03-22T06:10:23;98943.93;;;9.58;69.90
82949;BME280;72736;50.236;18.876;2024-03-22T06:15:26;98941.14;;;9.58;69.72
82949;BME280;72736;50.236;18.876;2024-03-22T06:20:31;98948.90;;;9.58;69.46
82949;BME280;72736;50.236;18.876;2024-03-22T06:25:34;98950.42;;;9.56;69.35
82949;BME280;72736;50.236;18.876;2024-03-22T06:30:37;98951.77;;;9.54;69.07
82949;BME280;72736;50.236;18.876;2024-03-22T06:35:41;98955.23;;;9.52;69.09
82949;BME280;72736;50.236;18.876;2024-03-22T06:40:45;98959.89;;;9.51;69.05
82949;BME280;72736;50.236;18.876;2024-03-22T06:45:48;98961.94;;;9.50;69.33
82949;BME280;72736;50.236;18.876;2024-03-22T06:50:51;98961.04;;;9.49;69.17
82949;BME280;72736;50.236;18.876;2024-03-22T06:55:54;98958.58;;;9.49;69.27
82949;BME280;72736;50.236;18.876;2024-03-22T07:01:00;98957.25;;;9.49;69.40
82949;BME280;72736;50.236;18.876;2024-03-22T07:06:03;98952.55;;;9.50;69.49
82949;BME280;72736;50.236;18.876;2024-03-22T07:11:08;98950.55;;;9.50;69.49
82949;BME280;72736;50.236;18.876;2024-03-22T07:16:11;98949.27;;;9.50;69.61
82949;BME280;72736;50.236;18.876;2024-03-22T07:21:14;98954.16;;;9.51;69.61
82949;BME280;72736;50.236;18.876;2024-03-22T07:26:17;98954.09;;;9.51;69.82
82949;BME280;72736;50.236;18.876;2024-03-22T07:31:32;98950.18;;;9.54;69.74
82949;BME280;72736;50.236;18.876;2024-03-22T07:36:38;98945.81;;;9.56;69.80
82949;BME280;72736;50.236;18.876;2024-03-22T07:41:41;98946.35;;;9.59;69.89
82949;BME280;72736;50.236;18.876;2024-03-22T07:46:45;98944.13;;;9.62;69.91
82949;BME280;72736;50.236;18.876;2024-03-22T07:51:49;98941.29;;;9.63;69.98
82949;BME280;72736;50.236;18.876;2024-03-22T07:56:53;98934.66;;;9.64;69.95
82949;BME280;72736;50.236;18.876;2024-03-22T08:01:56;98926.10;;;9.63;70.17
82949;BME280;72736;50.236;18.876;2024-03-22T08:07:00;98931.09;;;9.64;69.91
82949;BME280;72736;50.236;18.876;2024-03-22T08:12:05;98923.52;;;9.65;69.90
82949;BME280;72736;50.236;18.876;2024-03-22T08:17:09;98927.05;;;9.68;70.14
82949;BME280;72736;50.236;18.876;2024-03-22T08:22:13;98926.14;;;9.70;69.82
82949;BME280;72736;50.236;18.876;2024-03-22T08:27:16;98921.89;;;9.73;70.13
82949;BME280;72736;50.236;18.876;2024-03-22T08:32:19;98928.23;;;9.78;70.13
82949;BME280;72736;50.236;18.876;2024-03-22T08:37:22;98933.20;;;9.84;70.33
82949;BME280;72736;50.236;18.876;2024-03-22T08:42:26;98932.15;;;9.90;70.05
82949;BME280;72736;50.236;18.876;2024-03-22T08:47:29;98932.92;;;9.94;70.02
82949;BME280;72736;50.236;18.876;2024-03-22T08:52:32;98931.66;;;9.95;69.76
82949;BME280;72736;50.236;18.876;2024-03-22T08:57:37;98930.05;;;9.98;69.55
82949;BME280;72736;50.236;18.876;2024-03-22T09:02:51;98930.36;;;10.02;69.61
82949;BME280;72736;50.236;18.876;2024-03-22T09:07:54;98924.88;;;10.06;69.49
82949;BME280;72736;50.236;18.876;2024-03-22T09:12:59;98924.54;;;10.12;69.49
82949;BME280;72736;50.236;18.876;2024-03-22T09:18:02;98923.29;;;10.16;69.52
82949;BME280;72736;50.236;18.876;2024-03-22T09:23:05;98914.76;;;10.18;69.31
82949;BME280;72736;50.236;18.876;2024-03-22T09:28:08;98915.90;;;10.22;69.42
82949;BME280;72736;50.236;18.876;2024-03-22T09:33:12;98914.65;;;10.25;69.54
82949;BME280;72736;50.236;18.876;2024-03-22T09:38:15;98909.66;;;10.32;69.38
82949;BME280;72736;50.236;18.876;2024-03-22T09:43:18;98902.48;;;10.39;68.97
82949;BME280;72736;50.236;18.876;2024-03-22T09:48:23;98897.59;;;10.42;68.49
82949;BME280;72736;50.236;18.876;2024-03-22T09:53:27;98893.12;;;10.49;68.51
82949;BME280;72736;50.236;18.876;2024-03-22T09:58:33;98889.33;;;10.63;68.79
82949;BME280;72736;50.236;18.876;2024-03-22T10:03:36;98881.13;;;10.80;68.46
82949;BME280;72736;50.236;18.876;2024-03-22T10:08:39;98875.13;;;10.94;67.90
82949;BME280;72736;50.236;18.876;2024-03-22T10:13:42;98875.14;;;11.04;67.63
82949;BME280;72736;50.236;18.876;2024-03-22T10:18:47;98871.58;;;11.10;67.11
82949;BME280;72736;50.236;18.876;2024-03-22T10:23:50;98868.24;;;11.15;67.12
82949;BME280;72736;50.236;18.876;2024-03-22T10:28:56;98865.16;;;11.20;66.79
82949;BME280;72736;50.236;18.876;2024-03-22T10:34:00;98859.80;;;11.26;66.55
82949;BME280;72736;50.236;18.876;2024-03-22T10:39:06;98855.35;;;11.33;66.56
82949;BME280;72736;50.236;18.876;2024-03-22T10:44:11;98853.38;;;11.42;66.30
82949;BME280;72736;50.236;18.876;2024-03-22T10:49:17;98843.46;;;11.51;66.05
82949;BME280;72736;50.236;18.876;2024-03-22T10:54:24;98836.06;;;11.60;65.82
82949;BME280;72736;50.236;18.876;2024-03-22T10:59:34;98829.27;;;11.70;65.52
82949;BME280;72736;50.236;18.876;2024-03-22T11:04:37;98823.19;;;11.76;65.25
82949;BME280;72736;50.236;18.876;2024-03-22T11:09:39;98825.66;;;11.76;65.15
82949;BME280;72736;50.236;18.876;2024-03-22T11:14:42;98821.34;;;11.75;64.85
82949;BME280;72736;50.236;18.876;2024-03-22T11:19:46;98817.52;;;11.77;65.06
82949;BME280;72736;50.236;18.876;2024-03-22T11:24:49;98811.23;;;11.78;64.95
82949;BME280;72736;50.236;18.876;2024-03-22T11:29:52;98807.34;;;11.82;64.98
82949;BME280;72736;50.236;18.876;2024-03-22T11:35:00;98797.24;;;11.87;64.87
82949;BME280;72736;50.236;18.876;2024-03-22T11:40:05;98793.83;;;11.92;64.23
82949;BME280;72736;50.236;18.876;2024-03-22T11:45:11;98785.84;;;11.97;64.08
82949;BME280;72736;50.236;18.876;2024-03-22T11:50:16;98776.65;;;12.02;64.05
82949;BME280;72736;50.236;18.876;2024-03-22T11:55:19;98767.24;;;12.08;63.97
82949;BME280;72736;50.236;18.876;2024-03-22T12:00:23;98766.58;;;12.21;63.95
82949;BME280;72736;50.236;18.876;2024-03-22T12:05:48;98765.41;;;12.24;63.55
82949;BME280;72736;50.236;18.876;2024-03-22T12:10:52;98760.90;;;12.18;63.19
82949;BME280;72736;50.236;18.876;2024-03-22T12:15:55;98757.90;;;12.16;63.11
82949;BME280;72736;50.236;18.876;2024-03-22T12:20:59;98750.81;;;12.16;63.13
82949;BME280;72736;50.236;18.876;2024-03-22T12:26:02;98751.01;;;12.20;63.19
82949;BME280;72736;50.236;18.876;2024-03-22T12:31:07;98749.31;;;12.23;62.96
82949;BME280;72736;50.236;18.876;2024-03-22T12:36:10;98742.98;;;12.21;62.82
82949;BME280;72736;50.236;18.876;2024-03-22T12:41:13;98726.85;;;12.16;62.77
82949;BME280;72736;50.236;18.876;2024-03-22T12:46:18;98717.66;;;12.11;62.83
82949;BME280;72736;50.236;18.876;2024-03-22T12:51:21;98713.47;;;12.15;63.17
82949;BME280;72736;50.236;18.876;2024-03-22T12:56:25;98707.21;;;12.25;63.16
82949;BME280;72736;50.236;18.876;2024-03-22T13:01:27;98702.66;;;12.29;62.57
82949;BME280;72736;50.236;18.876;2024-03-22T13:06:33;98688.89;;;12.31;62.47
82949;BME280;72736;50.236;18.876;2024-03-22T13:11:37;98679.05;;;12.30;62.33
82949;BME280;72736;50.236;18.876;2024-03-22T13:16:40;98674.41;;;12.28;62.34
82949;BME280;72736;50.236;18.876;2024-03-22T13:21:42;98674.36;;;12.28;62.55
82949;BME280;72736;50.236;18.876;2024-03-22T13:26:50;98669.63;;;12.30;62.32
82949;BME280;72736;50.236;18.876;2024-03-22T13:31:53;98665.73;;;12.31;63.15
82949;BME280;72736;50.236;18.876;2024-03-22T13:36:57;98662.06;;;12.72;67.02
82949;BME280;72736;50.236;18.876;2024-03-22T13:42:01;98657.96;;;13.41;65.80
82949;BME280;72736;50.236;18.876;2024-03-22T13:47:05;98648.23;;;13.86;62.23
82949;BME280;72736;50.236;18.876;2024-03-22T13:52:08;98643.04;;;13.78;60.13
82949;BME280;72736;50.236;18.876;2024-03-22T13:57:11;98636.18;;;13.54;59.89
82949;BME280;72736;50.236;18.876;2024-03-22T14:02:17;98630.91;;;13.30;59.92
82949;BME280;72736;50.236;18.876;2024-03-22T14:07:23;98624.38;;;13.11;60.18
82949;BME280;72736;50.236;18.876;2024-03-22T14:12:27;98618.37;;;12.96;60.45
82949;BME280;72736;50.236;18.876;2024-03-22T14:17:30;98613.02;;;12.85;60.61
82949;BME280;72736;50.236;18.876;2024-03-22T14:22:33;98609.13;;;12.77;60.80
82949;BME280;72736;50.236;18.876;2024-03-22T14:27:38;98608.30;;;12.73;61.07
82949;BME280;72736;50.236;18.876;2024-03-22T14:32:43;98603.04;;;12.68;61.09
82949;BME280;72736;50.236;18.876;2024-03-22T14:37:50;98604.80;;;12.63;60.99
82949;BME280;72736;50.236;18.876;2024-03-22T14:42:56;98595.90;;;12.57;61.05
82949;BME280;72736;50.236;18.876;2024-03-22T14:48:02;98592.02;;;12.54;61.17
82949;BME280;72736;50.236;18.876;2024-03-22T14:53:08;98584.73;;;12.52;61.05
82949;BME280;72736;50.236;18.876;2024-03-22T14:58:15;98582.12;;;12.51;61.42
82949;BME280;72736;50.236;18.876;2024-03-22T15:03:18;98574.71;;;12.49;61.32
82949;BME280;72736;50.236;18.876;2024-03-22T15:08:22;98566.13;;;12.47;61.21
82949;BME280;72736;50.236;18.876;2024-03-22T15:13:25;98558.48;;;12.46;61.50
82949;BME280;72736;50.236;18.876;2024-03-22T15:18:30;98555.48;;;12.45;61.22
82949;BME280;72736;50.236;18.876;2024-03-22T15:23:33;98551.00;;;12.41;61.31
82949;BME280;72736;50.236;18.876;2024-03-22T15:28:36;98546.94;;;12.37;61.49
82949;BME280;72736;50.236;18.876;2024-03-22T15:33:39;98549.23;;;12.34;61.79
82949;BME280;72736;50.236;18.876;2024-03-22T15:38:42;98543.04;;;12.28;61.58
82949;BME280;72736;50.236;18.876;2024-03-22T15:43:47;98544.69;;;12.25;61.77
82949;BME280;72736;50.236;18.876;2024-03-22T15:48:51;98539.10;;;12.20;61.99
82949;BME280;72736;50.236;18.876;2024-03-22T15:54:05;98532.02;;;12.16;62.31
82949;BME280;72736;50.236;18.876;2024-03-22T15:59:31;98535.34;;;12.13;62.90
82949;BME280;72736;50.236;18.876;2024-03-22T16:04:35;98531.98;;;12.09;63.98
82949;BME280;72736;50.236;18.876;2024-03-22T16:09:49;98534.09;;;12.04;65.56
82949;BME280;72736;50.236;18.876;2024-03-22T16:14:52;98533.20;;;11.98;66.69
82949;BME280;72736;50.236;18.876;2024-03-22T16:19:56;98533.27;;;11.90;68.01
82949;BME280;72736;50.236;18.876;2024-03-22T16:24:59;98528.84;;;11.83;69.09
82949;BME280;72736;50.236;18.876;2024-03-22T16:30:03;98522.57;;;11.77;69.91
82949;BME280;72736;50.236;18.876;2024-03-22T16:35:07;98520.81;;;11.70;70.49
82949;BME280;72736;50.236;18.876;2024-03-22T16:40:12;98518.44;;;11.64;70.62
82949;BME280;72736;50.236;18.876;2024-03-22T16:45:16;98514.09;;;11.56;71.22
82949;BME280;72736;50.236;18.876;2024-03-22T16:50:20;98502.55;;;11.50;71.97
82949;BME280;72736;50.236;18.876;2024-03-22T16:55:23;98503.84;;;11.44;72.29
82949;BME280;72736;50.236;18.876;2024-03-22T17:00:28;98503.35;;;11.38;72.55
82949;BME280;72736;50.236;18.876;2024-03-22T17:05:33;98496.39;;;11.34;72.51
82949;BME280;72736;50.236;18.876;2024-03-22T17:10:42;98489.84;;;11.28;73.13
82949;BME280;72736;50.236;18.876;2024-03-22T17:15:54;98482.46;;;11.22;73.30
82949;BME280;72736;50.236;18.876;2024-03-22T17:21:00;98484.67;;;11.16;73.32
82949;BME280;72736;50.236;18.876;2024-03-22T17:26:03;98496.58;;;11.12;73.12
82949;BME280;72736;50.236;18.876;2024-03-22T17:31:07;98498.02;;;11.08;73.73
82949;BME280;72736;50.236;18.876;2024-03-22T17:36:12;98494.56;;;11.05;73.81
82949;BME280;72736;50.236;18.876;2024-03-22T17:41:15;98488.11;;;11.03;73.72
82949;BME280;72736;50.236;18.876;2024-03-22T17:46:19;98485.11;;;11.00;74.19
82949;BME280;72736;50.236;18.876;2024-03-22T17:51:21;98483.04;;;10.97;74.43
82949;BME280;72736;50.236;18.876;2024-03-22T17:56:25;98482.80;;;10.94;74.74
82949;BME280;72736;50.236;18.876;2024-03-22T18:01:28;98481.73;;;10.93;75.13
82949;BME280;72736;50.236;18.876;2024-03-22T18:06:33;98474.09;;;10.91;75.30
82949;BME280;72736;50.236;18.876;2024-03-22T18:11:36;98467.50;;;10.91;75.31
82949;BME280;72736;50.236;18.876;2024-03-22T18:16:40;98461.23;;;10.89;75.37
82949;BME280;72736;50.236;18.876;2024-03-22T18:21:45;98456.80;;;10.86;75.45
82949;BME280;72736;50.236;18.876;2024-03-22T18:26:49;98449.59;;;10.83;75.66
82949;BME280;72736;50.236;18.876;2024-03-22T18:31:52;98439.00;;;10.79;75.70
82949;BME280;72736;50.236;18.876;2024-03-22T18:36:55;98434.56;;;10.76;75.75
82949;BME280;72736;50.236;18.876;2024-03-22T18:41:58;98432.92;;;10.72;76.02
82949;BME280;72736;50.236;18.876;2024-03-22T18:47:01;98426.34;;;10.71;76.18
82949;BME280;72736;50.236;18.876;2024-03-22T18:52:04;98425.40;;;10.70;75.99
82949;BME280;72736;50.236;18.876;2024-03-22T18:57:07;98419.38;;;10.70;75.85
82949;BME280;72736;50.236;18.876;2024-03-22T19:02:10;98409.55;;;10.69;75.45
82949;BME280;72736;50.236;18.876;2024-03-22T19:07:13;98404.89;;;10.66;74.28
82949;BME280;72736;50.236;18.876;2024-03-22T19:12:16;98400.16;;;10.62;72.40
82949;BME280;72736;50.236;18.876;2024-03-22T19:17:19;98398.75;;;10.59;71.03
82949;BME280;72736;50.236;18.876;2024-03-22T19:22:22;98403.35;;;10.58;69.73
82949;BME280;72736;50.236;18.876;2024-03-22T19:27:25;98398.06;;;10.57;68.76
82949;BME280;72736;50.236;18.876;2024-03-22T19:32:29;98394.48;;;10.56;68.59
82949;BME280;72736;50.236;18.876;2024-03-22T19:37:32;98394.44;;;10.56;68.59
82949;BME280;72736;50.236;18.876;2024-03-22T19:42:35;98380.21;;;10.57;68.42
82949;BME280;72736;50.236;18.876;2024-03-22T19:47:38;98371.98;;;10.58;68.49
82949;BME280;72736;50.236;18.876;2024-03-22T19:52:41;98367.96;;;10.60;68.18
82949;BME280;72736;50.236;18.876;2024-03-22T19:57:44;98366.09;;;10.59;68.87
82949;BME280;72736;50.236;18.876;2024-03-22T20:02:47;98362.82;;;10.57;69.07
82949;BME280;72736;50.236;18.876;2024-03-22T20:07:50;98355.35;;;10.55;69.48
82949;BME280;72736;50.236;18.876;2024-03-22T20:12:53;98347.73;;;10.52;69.51
82949;BME280;72736;50.236;18.876;2024-03-22T20:17:57;98346.71;;;10.48;69.80
82949;BME280;72736;50.236;18.876;2024-03-22T20:23:01;98342.44;;;10.44;70.37
82949;BME280;72736;50.236;18.876;2024-03-22T20:28:09;98343.39;;;10.42;70.53
82949;BME280;72736;50.236;18.876;2024-03-22T20:33:12;98340.38;;;10.43;70.67
